sensor_id;sensor_type;location;lat;lon;timestamp;P1;durP1;ratioP1;P2;durP2;ratioP2
20527;SDS011;23612;50.894;10.700;2023-07-30T00:00:39;2.95;;;2.72;;
20527;SDS011;23612;50.894;10.700;2023-07-30T00:03:04;2.85;;;2.65;;
20527;SDS011;23612;50.894;10.700;2023-07-30T00:05:30;2.70;;;2.50;;
20527;SDS011;23612;50.894;10.700;2023-07-30T00:07:56;5.43;;;2.42;;
20527;SDS011;23612;50.894;10.700;2023-07-30T00:10:21;2.90;;;2.55;;
20527;SDS011;23612;50.894;10.700;2023-07-30T00:12:47;3.78;;;2.50;;
20527;SDS011;23612;50.894;10.700;2023-07-30T00:15:12;3.15;;;2.50;;
20527;SDS011;23612;50.894;10.700;2023-07-30T00:17:38;2.28;;;2.10;;
20527;SDS011;23612;50.894;10.700;2023-07-30T00:20:04;3.42;;;2.70;;
20527;SDS011;23612;50.894;10.700;2023-07-30T00:22:33;2.67;;;2.47;;
20527;SDS011;23612;50.894;10.700;2023-07-30T00:24:59;2.42;;;2.22;;
20527;SDS011;23612;50.894;10.700;2023-07-30T00:27:25;3.58;;;2.20;;
20527;SDS011;23612;50.894;10.700;2023-07-30T00:29:50;2.40;;;2.20;;
20527;SDS011;23612;50.894;10.700;2023-07-30T00:32:16;4.35;;;2.30;;
20527;SDS011;23612;50.894;10.700;2023-07-30T00:34:42;5.50;;;2.22;;
20527;SDS011;23612;50.894;10.700;2023-07-30T00:37:08;5.28;;;2.40;;
20527;SDS011;23612;50.894;10.700;2023-07-30T00:39:33;2.40;;;2.30;;
20527;SDS011;23612;50.894;10.700;2023-07-30T00:41:59;6.10;;;2.72;;
20527;SDS011;23612;50.894;10.700;2023-07-30T00:44:24;4.25;;;2.53;;
20527;SDS011;23612;50.894;10.700;2023-07-30T00:46:50;3.30;;;2.60;;
20527;SDS011;23612;50.894;10.700;2023-07-30T00:49:16;2.80;;;2.53;;
20527;SDS011;23612;50.894;10.700;2023-07-30T00:51:42;2.72;;;2.40;;
20527;SDS011;23612;50.894;10.700;2023-07-30T00:54:08;4.03;;;2.70;;
20527;SDS011;23612;50.894;10.700;2023-07-30T00:56:34;2.67;;;2.20;;
20527;SDS011;23612;50.894;10.700;2023-07-30T00:59:00;2.97;;;2.38;;
20527;SDS011;23612;50.894;10.700;2023-07-30T01:01:26;5.10;;;2.10;;
20527;SDS011;23612;50.894;10.700;2023-07-30T01:03:52;2.30;;;2.10;;
20527;SDS011;23612;50.894;10.700;2023-07-30T01:06:17;4.10;;;2.28;;
20527;SDS011;23612;50.894;10.700;2023-07-30T01:08:45;2.60;;;2.40;;
20527;SDS011;23612;50.894;10.700;2023-07-30T01:11:11;3.10;;;2.45;;
20527;SDS011;23612;50.894;10.700;2023-07-30T01:13:37;3.47;;;2.45;;
20527;SDS011;23612;50.894;10.700;2023-07-30T01:16:04;3.22;;;2.60;;
20527;SDS011;23612;50.894;10.700;2023-07-30T01:18:31;2.35;;;2.17;;
20527;SDS011;23612;50.894;10.700;2023-07-30T01:20:57;4.80;;;2.45;;
20527;SDS011;23612;50.894;10.700;2023-07-30T01:23:24;2.25;;;2.10;;
20527;SDS011;23612;50.894;10.700;2023-07-30T01:25:51;2.80;;;2.60;;
20527;SDS011;23612;50.894;10.700;2023-07-30T01:28:25;2.67;;;2.00;;
20527;SDS011;23612;50.894;10.700;2023-07-30T01:30:52;2.85;;;2.40;;
20527;SDS011;23612;50.894;10.700;2023-07-30T01:33:19;4.65;;;2.25;;
20527;SDS011;23612;50.894;10.700;2023-07-30T01:35:45;3.05;;;2.70;;
20527;SDS011;23612;50.894;10.700;2023-07-30T01:38:11;2.60;;;2.40;;
20527;SDS011;23612;50.894;10.700;2023-07-30T01:40:37;2.50;;;2.30;;
20527;SDS011;23612;50.894;10.700;2023-07-30T01:43:03;2.92;;;2.40;;
20527;SDS011;23612;50.894;10.700;2023-07-30T01:45:28;2.42;;;2.22;;
20527;SDS011;23612;50.894;10.700;2023-07-30T01:47:54;3.72;;;2.20;;
20527;SDS011;23612;50.894;10.700;2023-07-30T01:50:20;2.22;;;2.10;;
20527;SDS011;23612;50.894;10.700;2023-07-30T01:52:45;2.55;;;2.35;;
20527;SDS011;23612;50.894;10.700;2023-07-30T01:55:11;3.50;;;2.40;;
20527;SDS011;23612;50.894;10.700;2023-07-30T01:57:36;3.22;;;2.70;;
20527;SDS011;23612;50.894;10.700;2023-07-30T02:00:02;2.53;;;2.33;;
20527;SDS011;23612;50.894;10.700;2023-07-30T02:02:28;6.70;;;2.28;;
20527;SDS011;23612;50.894;10.700;2023-07-30T02:04:53;2.45;;;2.25;;
20527;SDS011;23612;50.894;10.700;2023-07-30T02:07:19;2.47;;;2.28;;
20527;SDS011;23612;50.894;10.700;2023-07-30T02:09:44;2.90;;;2.55;;
20527;SDS011;23612;50.894;10.700;2023-07-30T02:12:10;3.40;;;2.47;;
20527;SDS011;23612;50.894;10.700;2023-07-30T02:14:36;5.47;;;2.78;;
20527;SDS011;23612;50.894;10.700;2023-07-30T02:17:01;6.07;;;3.20;;
20527;SDS011;23612;50.894;10.700;2023-07-30T02:19:27;3.38;;;2.33;;
20527;SDS011;23612;50.894;10.700;2023-07-30T02:21:53;2.38;;;2.22;;
20527;SDS011;23612;50.894;10.700;2023-07-30T02:24:18;4.70;;;2.15;;
20527;SDS011;23612;50.894;10.700;2023-07-30T02:26:43;5.57;;;2.40;;
20527;SDS011;23612;50.894;10.700;2023-07-30T02:29:09;3.05;;;2.50;;
20527;SDS011;23612;50.894;10.700;2023-07-30T02:31:34;3.08;;;2.47;;
20527;SDS011;23612;50.894;10.700;2023-07-30T02:34:00;3.33;;;2.40;;
20527;SDS011;23612;50.894;10.700;2023-07-30T02:36:26;7.05;;;2.70;;
20527;SDS011;23612;50.894;10.700;2023-07-30T02:38:51;4.13;;;2.75;;
20527;SDS011;23612;50.894;10.700;2023-07-30T02:41:17;4.22;;;2.85;;
20527;SDS011;23612;50.894;10.700;2023-07-30T02:43:42;3.80;;;3.20;;
20527;SDS011;23612;50.894;10.700;2023-07-30T02:46:08;4.35;;;2.92;;
20527;SDS011;23612;50.894;10.700;2023-07-30T02:48:33;3.03;;;2.72;;
20527;SDS011;23612;50.894;10.700;2023-07-30T02:50:59;2.92;;;2.63;;
20527;SDS011;23612;50.894;10.700;2023-07-30T02:53:24;4.43;;;3.05;;
20527;SDS011;23612;50.894;10.700;2023-07-30T02:55:50;3.15;;;2.85;;
20527;SDS011;23612;50.894;10.700;2023-07-30T02:58:15;3.65;;;2.72;;
20527;SDS011;23612;50.894;10.700;2023-07-30T03:00:41;2.65;;;2.35;;
20527;SDS011;23612;50.894;10.700;2023-07-30T03:03:06;3.58;;;2.72;;
20527;SDS011;23612;50.894;10.700;2023-07-30T03:05:32;3.70;;;2.78;;
20527;SDS011;23612;50.894;10.700;2023-07-30T03:07:57;4.88;;;2.90;;
20527;SDS011;23612;50.894;10.700;2023-07-30T03:10:23;3.47;;;2.85;;
20527;SDS011;23612;50.894;10.700;2023-07-30T03:12:48;3.20;;;2.92;;
20527;SDS011;23612;50.894;10.700;2023-07-30T03:15:14;4.72;;;3.00;;
20527;SDS011;23612;50.894;10.700;2023-07-30T03:17:39;3.80;;;2.92;;
20527;SDS011;23612;50.894;10.700;2023-07-30T03:20:05;2.83;;;2.63;;
20527;SDS011;23612;50.894;10.700;2023-07-30T03:22:31;7.95;;;2.75;;
20527;SDS011;23612;50.894;10.700;2023-07-30T03:24:57;5.90;;;2.90;;
20527;SDS011;23612;50.894;10.700;2023-07-30T03:27:22;3.28;;;2.78;;
20527;SDS011;23612;50.894;10.700;2023-07-30T03:29:48;3.65;;;3.15;;
20527;SDS011;23612;50.894;10.700;2023-07-30T03:32:13;3.97;;;2.80;;
20527;SDS011;23612;50.894;10.700;2023-07-30T03:34:39;3.22;;;2.92;;
20527;SDS011;23612;50.894;10.700;2023-07-30T03:37:04;4.80;;;2.72;;
20527;SDS011;23612;50.894;10.700;2023-07-30T03:39:30;2.97;;;2.78;;
20527;SDS011;23612;50.894;10.700;2023-07-30T03:41:55;3.38;;;3.10;;
20527;SDS011;23612;50.894;10.700;2023-07-30T03:44:21;3.70;;;2.67;;
20527;SDS011;23612;50.894;10.700;2023-07-30T03:46:46;4.78;;;2.70;;
20527;SDS011;23612;50.894;10.700;2023-07-30T03:49:12;3.42;;;2.70;;
20527;SDS011;23612;50.894;10.700;2023-07-30T03:51:37;4.65;;;3.20;;
20527;SDS011;23612;50.894;10.700;2023-07-30T03:54:06;5.82;;;3.20;;
20527;SDS011;23612;50.894;10.700;2023-07-30T03:56:31;11.65;;;3.28;;
20527;SDS011;23612;50.894;10.700;2023-07-30T03:58:57;3.72;;;3.08;;
20527;SDS011;23612;50.894;10.700;2023-07-30T04:01:22;6.18;;;3.00;;
20527;SDS011;23612;50.894;10.700;2023-07-30T04:03:48;3.17;;;2.88;;
20527;SDS011;23612;50.894;10.700;2023-07-30T04:06:13;2.83;;;2.63;;
20527;SDS011;23612;50.894;10.700;2023-07-30T04:08:39;5.32;;;2.70;;
20527;SDS011;23612;50.894;10.700;2023-07-30T04:11:04;3.67;;;2.83;;
20527;SDS011;23612;50.894;10.700;2023-07-30T04:13:30;3.13;;;2.75;;
20527;SDS011;23612;50.894;10.700;2023-07-30T04:15:56;3.03;;;2.60;;
20527;SDS011;23612;50.894;10.700;2023-07-30T04:18:21;2.95;;;2.75;;
20527;SDS011;23612;50.894;10.700;2023-07-30T04:20:47;3.53;;;2.97;;
20527;SDS011;23612;50.894;10.700;2023-07-30T04:23:13;3.63;;;3.08;;
20527;SDS011;23612;50.894;10.700;2023-07-30T04:25:39;2.95;;;2.75;;
20527;SDS011;23612;50.894;10.700;2023-07-30T04:28:04;3.80;;;3.03;;
20527;SDS011;23612;50.894;10.700;2023-07-30T04:30:30;3.63;;;2.90;;
20527;SDS011;23612;50.894;10.700;2023-07-30T04:32:57;4.13;;;3.25;;
20527;SDS011;23612;50.894;10.700;2023-07-30T04:35:22;3.20;;;2.78;;
20527;SDS011;23612;50.894;10.700;2023-07-30T04:37:48;5.28;;;2.90;;
20527;SDS011;23612;50.894;10.700;2023-07-30T04:40:13;5.28;;;3.33;;
20527;SDS011;23612;50.894;10.700;2023-07-30T04:42:39;4.07;;;3.22;;
20527;SDS011;23612;50.894;10.700;2023-07-30T04:45:04;3.30;;;3.00;;
20527;SDS011;23612;50.894;10.700;2023-07-30T04:47:30;3.10;;;2.80;;
20527;SDS011;23612;50.894;10.700;2023-07-30T04:49:56;3.88;;;3.10;;
20527;SDS011;23612;50.894;10.700;2023-07-30T04:52:21;4.60;;;3.35;;
20527;SDS011;23612;50.894;10.700;2023-07-30T04:54:47;5.03;;;3.50;;
20527;SDS011;23612;50.894;10.700;2023-07-30T04:57:12;6.35;;;3.60;;
20527;SDS011;23612;50.894;10.700;2023-07-30T04:59:38;6.55;;;4.10;;
20527;SDS011;23612;50.894;10.700;2023-07-30T05:02:03;4.80;;;4.10;;
20527;SDS011;23612;50.894;10.700;2023-07-30T05:04:29;4.60;;;4.13;;
20527;SDS011;23612;50.894;10.700;2023-07-30T05:06:54;4.13;;;3.83;;
20527;SDS011;23612;50.894;10.700;2023-07-30T05:09:20;4.65;;;4.15;;
20527;SDS011;23612;50.894;10.700;2023-07-30T05:11:46;6.57;;;4.45;;
20527;SDS011;23612;50.894;10.700;2023-07-30T05:14:12;4.18;;;3.78;;
20527;SDS011;23612;50.894;10.700;2023-07-30T05:16:37;4.88;;;3.30;;
20527;SDS011;23612;50.894;10.700;2023-07-30T05:19:03;3.25;;;3.05;;
20527;SDS011;23612;50.894;10.700;2023-07-30T05:21:28;5.72;;;3.40;;
20527;SDS011;23612;50.894;10.700;2023-07-30T05:23:54;4.35;;;3.45;;
20527;SDS011;23612;50.894;10.700;2023-07-30T05:26:19;3.47;;;3.13;;
20527;SDS011;23612;50.894;10.700;2023-07-30T05:28:44;4.22;;;2.78;;
20527;SDS011;23612;50.894;10.700;2023-07-30T05:31:10;4.68;;;2.60;;
20527;SDS011;23612;50.894;10.700;2023-07-30T05:33:35;4.00;;;2.80;;
20527;SDS011;23612;50.894;10.700;2023-07-30T05:36:01;5.68;;;3.00;;
20527;SDS011;23612;50.894;10.700;2023-07-30T05:38:27;3.05;;;2.72;;
20527;SDS011;23612;50.894;10.700;2023-07-30T05:40:52;5.30;;;2.70;;
20527;SDS011;23612;50.894;10.700;2023-07-30T05:43:18;4.03;;;3.08;;
20527;SDS011;23612;50.894;10.700;2023-07-30T05:45:43;2.72;;;2.53;;
20527;SDS011;23612;50.894;10.700;2023-07-30T05:48:09;5.10;;;2.60;;
20527;SDS011;23612;50.894;10.700;2023-07-30T05:50:35;3.92;;;2.45;;
20527;SDS011;23612;50.894;10.700;2023-07-30T05:53:00;2.70;;;2.45;;
20527;SDS011;23612;50.894;10.700;2023-07-30T05:55:26;2.55;;;1.90;;
20527;SDS011;23612;50.894;10.700;2023-07-30T05:57:51;4.28;;;2.20;;
20527;SDS011;23612;50.894;10.700;2023-07-30T06:00:18;3.40;;;2.13;;
20527;SDS011;23612;50.894;10.700;2023-07-30T06:02:44;2.00;;;1.85;;
20527;SDS011;23612;50.894;10.700;2023-07-30T06:05:09;3.17;;;1.92;;
20527;SDS011;23612;50.894;10.700;2023-07-30T06:07:35;3.17;;;1.98;;
20527;SDS011;23612;50.894;10.700;2023-07-30T06:10:00;3.58;;;1.80;;
20527;SDS011;23612;50.894;10.700;2023-07-30T06:12:26;2.20;;;2.00;;
20527;SDS011;23612;50.894;10.700;2023-07-30T06:14:51;2.20;;;1.60;;
20527;SDS011;23612;50.894;10.700;2023-07-30T06:17:17;1.95;;;1.85;;
20527;SDS011;23612;50.894;10.700;2023-07-30T06:19:42;2.83;;;1.98;;
20527;SDS011;23612;50.894;10.700;2023-07-30T06:22:08;2.92;;;1.75;;
20527;SDS011;23612;50.894;10.700;2023-07-30T06:24:33;5.75;;;2.40;;
20527;SDS011;23612;50.894;10.700;2023-07-30T06:26:59;4.82;;;2.00;;
20527;SDS011;23612;50.894;10.700;2023-07-30T06:29:24;1.60;;;1.50;;
20527;SDS011;23612;50.894;10.700;2023-07-30T06:31:50;2.65;;;1.70;;
20527;SDS011;23612;50.894;10.700;2023-07-30T06:34:16;2.78;;;1.50;;
20527;SDS011;23612;50.894;10.700;2023-07-30T06:36:41;5.00;;;1.95;;
20527;SDS011;23612;50.894;10.700;2023-07-30T06:39:07;1.70;;;1.60;;
20527;SDS011;23612;50.894;10.700;2023-07-30T06:41:32;3.03;;;1.75;;
20527;SDS011;23612;50.894;10.700;2023-07-30T06:43:58;2.15;;;1.70;;
20527;SDS011;23612;50.894;10.700;2023-07-30T06:46:23;4.88;;;1.60;;
20527;SDS011;23612;50.894;10.700;2023-07-30T06:48:49;3.63;;;1.63;;
20527;SDS011;23612;50.894;10.700;2023-07-30T06:51:14;4.28;;;1.83;;
20527;SDS011;23612;50.894;10.700;2023-07-30T06:53:44;2.85;;;1.48;;
20527;SDS011;23612;50.894;10.700;2023-07-30T06:56:10;4.10;;;1.55;;
20527;SDS011;23612;50.894;10.700;2023-07-30T06:58:35;1.60;;;1.50;;
20527;SDS011;23612;50.894;10.700;2023-07-30T07:01:01;3.00;;;2.03;;
20527;SDS011;23612;50.894;10.700;2023-07-30T07:03:26;3.90;;;1.67;;
20527;SDS011;23612;50.894;10.700;2023-07-30T07:05:52;2.10;;;1.90;;
20527;SDS011;23612;50.894;10.700;2023-07-30T07:08:19;2.20;;;1.60;;
20527;SDS011;23612;50.894;10.700;2023-07-30T07:10:45;1.90;;;1.80;;
20527;SDS011;23612;50.894;10.700;2023-07-30T07:13:10;4.35;;;2.00;;
20527;SDS011;23612;50.894;10.700;2023-07-30T07:15:40;7.25;;;1.73;;
20527;SDS011;23612;50.894;10.700;2023-07-30T07:18:09;1.63;;;1.40;;
20527;SDS011;23612;50.894;10.700;2023-07-30T07:20:35;3.60;;;1.88;;
20527;SDS011;23612;50.894;10.700;2023-07-30T07:23:02;2.33;;;1.73;;
20527;SDS011;23612;50.894;10.700;2023-07-30T07:25:27;1.70;;;1.60;;
20527;SDS011;23612;50.894;10.700;2023-07-30T07:27:53;3.03;;;1.42;;
20527;SDS011;23612;50.894;10.700;2023-07-30T07:30:18;3.45;;;1.70;;
20527;SDS011;23612;50.894;10.700;2023-07-30T07:32:44;2.42;;;1.67;;
20527;SDS011;23612;50.894;10.700;2023-07-30T07:35:09;4.50;;;1.45;;
20527;SDS011;23612;50.894;10.700;2023-07-30T07:37:35;1.70;;;1.60;;
20527;SDS011;23612;50.894;10.700;2023-07-30T07:40:01;1.60;;;1.50;;
20527;SDS011;23612;50.894;10.700;2023-07-30T07:42:28;2.42;;;1.67;;
20527;SDS011;23612;50.894;10.700;2023-07-30T07:44:54;1.73;;;1.63;;
20527;SDS011;23612;50.894;10.700;2023-07-30T07:47:20;2.47;;;1.45;;
20527;SDS011;23612;50.894;10.700;2023-07-30T07:49:45;2.30;;;1.58;;
20527;SDS011;23612;50.894;10.700;2023-07-30T07:52:11;1.50;;;1.40;;
20527;SDS011;23612;50.894;10.700;2023-07-30T07:54:36;1.63;;;1.52;;
20527;SDS011;23612;50.894;10.700;2023-07-30T07:57:02;1.55;;;1.45;;
20527;SDS011;23612;50.894;10.700;2023-07-30T07:59:28;2.60;;;1.40;;
20527;SDS011;23612;50.894;10.700;2023-07-30T08:01:53;3.20;;;1.20;;
20527;SDS011;23612;50.894;10.700;2023-07-30T08:04:19;1.60;;;1.30;;
20527;SDS011;23612;50.894;10.700;2023-07-30T08:06:46;2.70;;;1.70;;
20527;SDS011;23612;50.894;10.700;2023-07-30T08:09:12;1.40;;;1.30;;
20527;SDS011;23612;50.894;10.700;2023-07-30T08:11:37;2.53;;;1.60;;
20527;SDS011;23612;50.894;10.700;2023-07-30T08:14:03;1.45;;;1.35;;
20527;SDS011;23612;50.894;10.700;2023-07-30T08:16:29;2.72;;;1.35;;
20527;SDS011;23612;50.894;10.700;2023-07-30T08:18:54;2.45;;;1.40;;
20527;SDS011;23612;50.894;10.700;2023-07-30T08:21:20;2.97;;;1.20;;
20527;SDS011;23612;50.894;10.700;2023-07-30T08:23:46;1.75;;;1.20;;
20527;SDS011;23612;50.894;10.700;2023-07-30T08:26:11;1.77;;;1.10;;
20527;SDS011;23612;50.894;10.700;2023-07-30T08:28:37;1.58;;;1.10;;
20527;SDS011;23612;50.894;10.700;2023-07-30T08:31:02;3.20;;;1.33;;
20527;SDS011;23612;50.894;10.700;2023-07-30T08:33:28;3.83;;;1.30;;
20527;SDS011;23612;50.894;10.700;2023-07-30T08:35:58;1.88;;;1.00;;
20527;SDS011;23612;50.894;10.700;2023-07-30T08:38:24;1.70;;;1.15;;
20527;SDS011;23612;50.894;10.700;2023-07-30T08:40:50;4.05;;;1.33;;
20527;SDS011;23612;50.894;10.700;2023-07-30T08:43:16;1.85;;;1.25;;
20527;SDS011;23612;50.894;10.700;2023-07-30T08:45:43;1.35;;;1.25;;
20527;SDS011;23612;50.894;10.700;2023-07-30T08:48:08;2.20;;;1.17;;
20527;SDS011;23612;50.894;10.700;2023-07-30T08:50:34;2.53;;;1.20;;
20527;SDS011;23612;50.894;10.700;2023-07-30T08:53:00;2.53;;;1.00;;
20527;SDS011;23612;50.894;10.700;2023-07-30T08:55:27;1.42;;;1.25;;
20527;SDS011;23612;50.894;10.700;2023-07-30T08:57:55;3.45;;;1.30;;
20527;SDS011;23612;50.894;10.700;2023-07-30T09:00:22;1.40;;;1.30;;
20527;SDS011;23612;50.894;10.700;2023-07-30T09:02:54;1.48;;;1.10;;
20527;SDS011;23612;50.894;10.700;2023-07-30T09:05:23;2.10;;;1.02;;
20527;SDS011;23612;50.894;10.700;2023-07-30T09:07:49;2.22;;;1.33;;
20527;SDS011;23612;50.894;10.700;2023-07-30T09:10:15;2.38;;;1.40;;
20527;SDS011;23612;50.894;10.700;2023-07-30T09:12:41;2.83;;;1.38;;
20527;SDS011;23612;50.894;10.700;2023-07-30T09:15:06;1.42;;;1.25;;
20527;SDS011;23612;50.894;10.700;2023-07-30T09:17:36;3.40;;;1.52;;
20527;SDS011;23612;50.894;10.700;2023-07-30T09:20:02;1.80;;;1.30;;
20527;SDS011;23612;50.894;10.700;2023-07-30T09:22:29;2.38;;;1.50;;
20527;SDS011;23612;50.894;10.700;2023-07-30T09:25:03;1.33;;;1.23;;
20527;SDS011;23612;50.894;10.700;2023-07-30T09:27:29;1.45;;;1.35;;
20527;SDS011;23612;50.894;10.700;2023-07-30T09:29:57;2.45;;;1.85;;
20527;SDS011;23612;50.894;10.700;2023-07-30T09:32:27;3.85;;;1.50;;
20527;SDS011;23612;50.894;10.700;2023-07-30T09:35:03;4.13;;;1.70;;
20527;SDS011;23612;50.894;10.700;2023-07-30T09:37:36;5.95;;;1.60;;
20527;SDS011;23612;50.894;10.700;2023-07-30T09:40:04;3.28;;;1.42;;
20527;SDS011;23612;50.894;10.700;2023-07-30T09:42:31;1.48;;;1.23;;
20527;SDS011;23612;50.894;10.700;2023-07-30T09:44:59;3.50;;;1.40;;
20527;SDS011;23612;50.894;10.700;2023-07-30T09:47:30;4.72;;;1.50;;
20527;SDS011;23612;50.894;10.700;2023-07-30T09:49:56;3.83;;;1.73;;
20527;SDS011;23612;50.894;10.700;2023-07-30T09:52:21;2.17;;;1.38;;
20527;SDS011;23612;50.894;10.700;2023-07-30T09:54:48;3.55;;;1.73;;
20527;SDS011;23612;50.894;10.700;2023-07-30T09:57:15;5.85;;;1.40;;
20527;SDS011;23612;50.894;10.700;2023-07-30T09:59:40;3.85;;;1.40;;
20527;SDS011;23612;50.894;10.700;2023-07-30T10:02:06;4.07;;;1.50;;
20527;SDS011;23612;50.894;10.700;2023-07-30T10:04:35;2.05;;;1.30;;
20527;SDS011;23612;50.894;10.700;2023-07-30T10:07:08;2.65;;;1.42;;
20527;SDS011;23612;50.894;10.700;2023-07-30T10:09:40;1.50;;;1.40;;
20527;SDS011;23612;50.894;10.700;2023-07-30T10:12:11;2.00;;;1.08;;
20527;SDS011;23612;50.894;10.700;2023-07-30T10:14:40;2.08;;;1.50;;
20527;SDS011;23612;50.894;10.700;2023-07-30T10:17:09;2.70;;;1.40;;
20527;SDS011;23612;50.894;10.700;2023-07-30T10:19:35;1.50;;;1.40;;
20527;SDS011;23612;50.894;10.700;2023-07-30T10:24:37;2.17;;;1.58;;
20527;SDS011;23612;50.894;10.700;2023-07-30T10:27:06;1.75;;;1.65;;
20527;SDS011;23612;50.894;10.700;2023-07-30T10:29:34;3.03;;;2.00;;
20527;SDS011;23612;50.894;10.700;2023-07-30T10:32:01;5.70;;;1.80;;
20527;SDS011;23612;50.894;10.700;2023-07-30T10:34:43;2.95;;;1.58;;
20527;SDS011;23612;50.894;10.700;2023-07-30T10:37:09;3.03;;;1.73;;
20527;SDS011;23612;50.894;10.700;2023-07-30T10:39:35;3.65;;;1.88;;
20527;SDS011;23612;50.894;10.700;2023-07-30T10:42:00;2.75;;;1.50;;
20527;SDS011;23612;50.894;10.700;2023-07-30T10:44:27;3.58;;;1.52;;
20527;SDS011;23612;50.894;10.700;2023-07-30T10:46:56;2.17;;;1.45;;
20527;SDS011;23612;50.894;10.700;2023-07-30T10:49:22;2.53;;;1.63;;
20527;SDS011;23612;50.894;10.700;2023-07-30T10:51:51;4.43;;;1.33;;
20527;SDS011;23612;50.894;10.700;2023-07-30T10:54:18;2.58;;;1.55;;
20527;SDS011;23612;50.894;10.700;2023-07-30T10:56:43;1.63;;;1.52;;
20527;SDS011;23612;50.894;10.700;2023-07-30T10:59:10;2.95;;;1.80;;
20527;SDS011;23612;50.894;10.700;2023-07-30T11:01:38;3.65;;;2.03;;
20527;SDS011;23612;50.894;10.700;2023-07-30T11:04:11;3.95;;;2.08;;
20527;SDS011;23612;50.894;10.700;2023-07-30T11:06:39;2.42;;;2.10;;
20527;SDS011;23612;50.894;10.700;2023-07-30T11:09:17;2.92;;;1.80;;
20527;SDS011;23612;50.894;10.700;2023-07-30T11:11:47;5.60;;;1.60;;
20527;SDS011;23612;50.894;10.700;2023-07-30T11:14:17;1.83;;;1.40;;
20527;SDS011;23612;50.894;10.700;2023-07-30T11:16:50;2.65;;;1.60;;
20527;SDS011;23612;50.894;10.700;2023-07-30T11:19:17;2.92;;;1.60;;
20527;SDS011;23612;50.894;10.700;2023-07-30T11:21:46;3.55;;;1.95;;
20527;SDS011;23612;50.894;10.700;2023-07-30T11:24:13;2.67;;;1.52;;
20527;SDS011;23612;50.894;10.700;2023-07-30T11:26:39;6.22;;;1.75;;
20527;SDS011;23612;50.894;10.700;2023-07-30T11:29:17;5.05;;;1.35;;
20527;SDS011;23612;50.894;10.700;2023-07-30T11:31:43;2.47;;;1.10;;
20527;SDS011;23612;50.894;10.700;2023-07-30T11:34:10;1.40;;;1.25;;
20527;SDS011;23612;50.894;10.700;2023-07-30T11:36:36;2.47;;;1.60;;
20527;SDS011;23612;50.894;10.700;2023-07-30T11:39:02;3.45;;;1.25;;
20527;SDS011;23612;50.894;10.700;2023-07-30T11:41:28;4.82;;;1.30;;
20527;SDS011;23612;50.894;10.700;2023-07-30T11:43:54;1.90;;;1.10;;
20527;SDS011;23612;50.894;10.700;2023-07-30T11:46:20;3.65;;;1.30;;
20527;SDS011;23612;50.894;10.700;2023-07-30T11:48:48;2.00;;;1.35;;
20527;SDS011;23612;50.894;10.700;2023-07-30T11:51:25;2.35;;;1.30;;
20527;SDS011;23612;50.894;10.700;2023-07-30T11:56:22;5.25;;;1.50;;
20527;SDS011;23612;50.894;10.700;2023-07-30T11:58:59;2.75;;;1.40;;
20527;SDS011;23612;50.894;10.700;2023-07-30T12:01:26;1.40;;;1.30;;
20527;SDS011;23612;50.894;10.700;2023-07-30T12:03:57;2.58;;;1.38;;
20527;SDS011;23612;50.894;10.700;2023-07-30T12:06:24;2.08;;;1.20;;
20527;SDS011;23612;50.894;10.700;2023-07-30T12:09:08;3.03;;;1.50;;
20527;SDS011;23612;50.894;10.700;2023-07-30T12:11:57;2.80;;;1.20;;
20527;SDS011;23612;50.894;10.700;2023-07-30T12:14:43;2.85;;;1.60;;
20527;SDS011;23612;50.894;10.700;2023-07-30T12:17:11;2.22;;;1.60;;
20527;SDS011;23612;50.894;10.700;2023-07-30T12:19:37;2.00;;;1.40;;
20527;SDS011;23612;50.894;10.700;2023-07-30T12:22:03;2.55;;;1.60;;
20527;SDS011;23612;50.894;10.700;2023-07-30T12:24:28;3.20;;;1.50;;
20527;SDS011;23612;50.894;10.700;2023-07-30T12:26:54;2.03;;;1.35;;
20527;SDS011;23612;50.894;10.700;2023-07-30T12:29:19;2.67;;;1.40;;
20527;SDS011;23612;50.894;10.700;2023-07-30T12:31:45;1.63;;;1.42;;
20527;SDS011;23612;50.894;10.700;2023-07-30T12:34:11;1.73;;;1.63;;
20527;SDS011;23612;50.894;10.700;2023-07-30T12:36:37;1.50;;;1.40;;
20527;SDS011;23612;50.894;10.700;2023-07-30T12:39:03;4.25;;;1.52;;
20527;SDS011;23612;50.894;10.700;2023-07-30T12:41:28;1.80;;;1.67;;
20527;SDS011;23612;50.894;10.700;2023-07-30T12:43:54;2.22;;;1.70;;
20527;SDS011;23612;50.894;10.700;2023-07-30T12:46:24;1.95;;;1.45;;
20527;SDS011;23612;50.894;10.700;2023-07-30T12:48:52;6.53;;;2.33;;
20527;SDS011;23612;50.894;10.700;2023-07-30T12:51:17;12.40;;;1.60;;
20527;SDS011;23612;50.894;10.700;2023-07-30T12:53:43;1.45;;;1.00;;
20527;SDS011;23612;50.894;10.700;2023-07-30T12:56:08;5.30;;;1.10;;
20527;SDS011;23612;50.894;10.700;2023-07-30T12:58:34;1.73;;;1.10;;
20527;SDS011;23612;50.894;10.700;2023-07-30T13:01:00;2.70;;;1.10;;
20527;SDS011;23612;50.894;10.700;2023-07-30T13:03:25;4.00;;;1.40;;
20527;SDS011;23612;50.894;10.700;2023-07-30T13:05:51;1.80;;;1.33;;
20527;SDS011;23612;50.894;10.700;2023-07-30T13:08:16;3.90;;;1.50;;
20527;SDS011;23612;50.894;10.700;2023-07-30T13:10:42;1.63;;;1.05;;
20527;SDS011;23612;50.894;10.700;2023-07-30T13:13:07;1.40;;;1.25;;
20527;SDS011;23612;50.894;10.700;2023-07-30T13:15:33;1.35;;;1.15;;
20527;SDS011;23612;50.894;10.700;2023-07-30T13:17:58;1.65;;;0.95;;
20527;SDS011;23612;50.894;10.700;2023-07-30T13:20:24;1.00;;;0.90;;
20527;SDS011;23612;50.894;10.700;2023-07-30T13:22:50;1.83;;;1.63;;
20527;SDS011;23612;50.894;10.700;2023-07-30T13:25:16;4.45;;;2.13;;
20527;SDS011;23612;50.894;10.700;2023-07-30T13:27:42;3.75;;;3.15;;
20527;SDS011;23612;50.894;10.700;2023-07-30T13:30:07;6.90;;;4.25;;
20527;SDS011;23612;50.894;10.700;2023-07-30T13:32:33;5.15;;;4.07;;
20527;SDS011;23612;50.894;10.700;2023-07-30T13:34:59;4.40;;;3.88;;
20527;SDS011;23612;50.894;10.700;2023-07-30T13:37:24;5.60;;;4.03;;
20527;SDS011;23612;50.894;10.700;2023-07-30T13:39:50;5.53;;;4.32;;
20527;SDS011;23612;50.894;10.700;2023-07-30T13:42:15;5.40;;;3.33;;
20527;SDS011;23612;50.894;10.700;2023-07-30T13:44:41;4.97;;;3.80;;
20527;SDS011;23612;50.894;10.700;2023-07-30T13:47:07;5.28;;;3.42;;
20527;SDS011;23612;50.894;10.700;2023-07-30T13:49:32;3.95;;;3.08;;
20527;SDS011;23612;50.894;10.700;2023-07-30T13:51:58;3.75;;;3.00;;
20527;SDS011;23612;50.894;10.700;2023-07-30T13:54:23;3.35;;;3.05;;
20527;SDS011;23612;50.894;10.700;2023-07-30T13:56:49;4.50;;;2.35;;
20527;SDS011;23612;50.894;10.700;2023-07-30T13:59:14;4.80;;;2.63;;
20527;SDS011;23612;50.894;10.700;2023-07-30T14:01:40;5.93;;;3.28;;
20527;SDS011;23612;50.894;10.700;2023-07-30T14:04:05;5.85;;;3.00;;
20527;SDS011;23612;50.894;10.700;2023-07-30T14:06:31;5.00;;;3.10;;
20527;SDS011;23612;50.894;10.700;2023-07-30T14:08:56;4.97;;;3.65;;
20527;SDS011;23612;50.894;10.700;2023-07-30T14:11:24;4.25;;;3.47;;
20527;SDS011;23612;50.894;10.700;2023-07-30T14:13:51;6.20;;;3.30;;
20527;SDS011;23612;50.894;10.700;2023-07-30T14:16:16;5.20;;;3.38;;
20527;SDS011;23612;50.894;10.700;2023-07-30T14:18:42;24.80;;;4.15;;
20527;SDS011;23612;50.894;10.700;2023-07-30T14:21:07;4.03;;;2.80;;
20527;SDS011;23612;50.894;10.700;2023-07-30T14:23:33;6.07;;;2.92;;
20527;SDS011;23612;50.894;10.700;2023-07-30T14:25:58;5.40;;;2.72;;
20527;SDS011;23612;50.894;10.700;2023-07-30T14:28:24;5.10;;;2.78;;
20527;SDS011;23612;50.894;10.700;2023-07-30T14:30:50;5.10;;;2.75;;
20527;SDS011;23612;50.894;10.700;2023-07-30T14:33:15;5.45;;;2.75;;